createdAt,value
2023-01-13T00:00:38.457Z,0.60
2023-01-13T00:03:05.626Z,0.60
2023-01-13T00:05:34.504Z,0.50
2023-01-13T00:08:01.541Z,0.70
2023-01-13T00:10:28.549Z,0.50
2023-01-13T00:12:55.608Z,0.57
2023-01-13T00:15:22.597Z,0.80
2023-01-13T00:17:49.568Z,0.70
2023-01-13T00:20:17.115Z,0.40
2023-01-13T00:22:45.443Z,0.80
2023-01-13T00:25:12.454Z,0.50
2023-01-13T00:27:39.591Z,0.57
2023-01-13T00:30:08.221Z,0.70
2023-01-13T00:32:35.295Z,0.70
2023-01-13T00:35:02.321Z,0.90
2023-01-13T00:37:29.386Z,0.50
2023-01-13T00:39:58.081Z,0.50
2023-01-13T00:42:43.608Z,0.60
2023-01-13T00:45:11.172Z,0.73
2023-01-13T00:47:38.188Z,0.60
2023-01-13T00:50:05.830Z,0.60
2023-01-13T00:52:33.542Z,0.80
2023-01-13T00:55:01.905Z,0.50
2023-01-13T00:57:28.947Z,0.50
2023-01-13T00:59:56.060Z,1.40
2023-01-13T01:02:23.116Z,0.77
2023-01-13T01:04:50.284Z,0.70
2023-01-13T01:07:17.572Z,0.60
2023-01-13T01:09:44.679Z,0.63
2023-01-13T01:12:14.316Z,0.73
2023-01-13T01:14:41.392Z,0.53
2023-01-13T01:17:08.380Z,0.60
2023-01-13T01:19:37.602Z,0.60
2023-01-13T01:22:04.663Z,0.40
2023-01-13T01:24:31.715Z,0.60
2023-01-13T01:26:58.746Z,0.50
2023-01-13T01:29:27.371Z,0.50
2023-01-13T01:31:54.448Z,0.50
2023-01-13T01:34:21.459Z,0.60
2023-01-13T01:36:48.500Z,0.60
2023-01-13T01:39:15.525Z,0.60
2023-01-13T01:42:02.559Z,0.73
2023-01-13T01:45:00.154Z,0.60
2023-01-13T01:47:28.982Z,0.70
2023-01-13T01:49:57.094Z,0.57
2023-01-13T01:52:28.963Z,0.60
2023-01-13T01:55:00.395Z,0.67
2023-01-13T01:57:31.974Z,0.60
2023-01-13T02:00:01.237Z,0.60
2023-01-13T02:02:29.232Z,0.50
2023-01-13T02:04:57.192Z,0.50
2023-01-13T02:07:27.291Z,0.50
2023-01-13T02:09:56.274Z,0.53
2023-01-13T02:12:30.159Z,0.60
2023-01-13T02:14:59.553Z,0.73
2023-01-13T02:17:45.413Z,0.60
2023-01-13T02:20:32.901Z,0.60
2023-01-13T02:23:54.847Z,0.70
2023-01-13T02:26:54.167Z,0.67
2023-01-13T02:30:06.176Z,0.40
2023-01-13T02:32:37.344Z,0.60
2023-01-13T02:35:07.998Z,0.60
2023-01-13T02:37:39.329Z,0.70
2023-01-13T02:40:12.727Z,0.90
2023-01-13T02:43:04.723Z,0.60
2023-01-13T02:45:39.861Z,0.60
2023-01-13T02:48:09.055Z,0.60
2023-01-13T02:50:40.157Z,0.80
2023-01-13T02:53:14.535Z,0.70
2023-01-13T02:55:46.900Z,0.60
2023-01-13T02:58:17.140Z,0.50
2023-01-13T03:00:46.393Z,0.63
2023-01-13T03:03:13.960Z,0.67
2023-01-13T03:05:44.156Z,0.90
2023-01-13T03:08:33.610Z,0.47
2023-01-13T03:11:04.775Z,0.80
2023-01-13T03:13:50.321Z,0.63
2023-01-13T03:16:29.412Z,0.60
2023-01-13T03:19:07.235Z,0.90
2023-01-13T03:21:40.729Z,0.73
2023-01-13T03:24:13.354Z,0.80
2023-01-13T03:26:46.812Z,0.80
2023-01-13T03:29:18.733Z,1.00
2023-01-13T03:31:52.939Z,0.90
2023-01-13T03:34:22.329Z,1.10
2023-01-13T03:36:54.316Z,0.77
2023-01-13T03:39:27.762Z,0.63
2023-01-13T03:41:59.910Z,0.50
2023-01-13T03:44:33.802Z,0.50
2023-01-13T03:47:12.382Z,0.53
2023-01-13T03:49:44.476Z,0.70
2023-01-13T03:52:16.519Z,0.37
2023-01-13T03:54:49.350Z,0.43
2023-01-13T03:57:19.525Z,0.80
2023-01-13T03:59:50.499Z,0.50
2023-01-13T04:02:29.787Z,0.70
2023-01-13T04:04:59.767Z,0.40
2023-01-13T04:07:37.605Z,0.70
2023-01-13T04:10:07.617Z,0.60
2023-01-13T04:12:57.401Z,0.60
2023-01-13T04:15:28.001Z,0.50
2023-01-13T04:18:02.567Z,0.60
2023-01-13T04:20:29.479Z,0.60
2023-01-13T04:22:56.308Z,0.43
2023-01-13T04:25:23.182Z,0.40
2023-01-13T04:27:50.021Z,0.60
2023-01-13T04:30:17.457Z,0.50
2023-01-13T04:32:44.295Z,0.37
2023-01-13T04:35:12.580Z,0.30
2023-01-13T04:37:39.429Z,0.47
2023-01-13T04:40:07.882Z,0.50
2023-01-13T04:42:34.756Z,0.40
2023-01-13T04:45:01.703Z,0.47
2023-01-13T04:47:28.635Z,0.80
2023-01-13T04:49:55.482Z,0.40
2023-01-13T04:52:23.727Z,0.50
2023-01-13T04:54:50.617Z,0.77
2023-01-13T04:57:17.477Z,0.90
2023-01-13T04:59:44.349Z,0.40
2023-01-13T05:02:15.084Z,0.50
2023-01-13T05:04:42.161Z,0.40
2023-01-13T05:07:09.050Z,0.40
2023-01-13T05:09:37.267Z,0.40
2023-01-13T05:12:22.851Z,0.40
2023-01-13T05:15:08.166Z,0.30
2023-01-13T05:17:35.914Z,0.30
2023-01-13T05:20:02.955Z,0.30
2023-01-13T05:22:48.333Z,0.40
2023-01-13T05:25:22.705Z,0.20
2023-01-13T05:27:49.976Z,0.67
2023-01-13T05:30:17.524Z,0.50
2023-01-13T05:32:44.389Z,0.47
2023-01-13T05:35:11.694Z,0.20
2023-01-13T05:37:39.326Z,0.30
2023-01-13T05:40:26.804Z,0.20
2023-01-13T05:43:22.263Z,0.23
2023-01-13T05:45:51.686Z,0.33
2023-01-13T05:48:20.367Z,0.13
2023-01-13T05:50:49.245Z,0.30
2023-01-13T05:53:16.490Z,0.40
2023-01-13T05:55:44.286Z,0.50
2023-01-13T05:58:14.244Z,0.30
2023-01-13T06:00:41.965Z,0.70
2023-01-13T06:03:09.303Z,0.20
2023-01-13T06:05:36.774Z,0.20
2023-01-13T06:08:05.664Z,0.40
2023-01-13T06:10:33.349Z,0.30
2023-01-13T06:13:00.471Z,0.27
2023-01-13T06:15:28.867Z,0.50
2023-01-13T06:17:57.064Z,0.60
2023-01-13T06:20:24.926Z,0.43
2023-01-13T06:22:53.941Z,0.40
2023-01-13T06:25:28.700Z,0.70
2023-01-13T06:27:56.591Z,0.40
2023-01-13T06:30:23.487Z,0.30
2023-01-13T06:32:54.738Z,0.20
2023-01-13T06:35:24.892Z,0.60
2023-01-13T06:37:54.139Z,0.67
2023-01-13T06:40:21.349Z,0.30
2023-01-13T06:43:07.665Z,0.50
2023-01-13T06:45:35.378Z,0.80
2023-01-13T06:48:03.837Z,0.30
2023-01-13T06:50:30.796Z,0.30
2023-01-13T06:52:57.732Z,0.20
2023-01-13T06:55:24.758Z,0.10
2023-01-13T06:57:53.545Z,0.30
2023-01-13T07:00:23.570Z,0.13
2023-01-13T07:02:50.986Z,0.40
2023-01-13T07:05:20.353Z,0.40
2023-01-13T07:07:47.195Z,0.40
2023-01-13T07:10:22.055Z,0.50
2023-01-13T07:13:24.920Z,0.40
2023-01-13T07:15:56.711Z,0.57
2023-01-13T07:18:24.386Z,0.40
2023-01-13T07:20:56.883Z,0.30
2023-01-13T07:23:24.575Z,0.10
2023-01-13T07:26:09.823Z,0.37
2023-01-13T07:28:37.285Z,0.40
2023-01-13T07:31:04.984Z,0.30
2023-01-13T07:33:34.944Z,0.30
2023-01-13T07:36:05.063Z,0.40
2023-01-13T07:38:33.631Z,0.40
2023-01-13T07:41:20.851Z,0.30
2023-01-13T07:43:47.956Z,0.30
2023-01-13T07:46:14.881Z,0.40
2023-01-13T07:48:41.824Z,0.70
2023-01-13T07:51:11.784Z,0.70
2023-01-13T07:53:39.306Z,0.40
2023-01-13T07:56:07.830Z,0.50
2023-01-13T07:58:36.068Z,0.27
2023-01-13T08:01:08.071Z,0.50
2023-01-13T08:03:35.063Z,0.90
2023-01-13T08:06:02.210Z,0.40
2023-01-13T08:08:30.546Z,0.53
2023-01-13T08:10:59.470Z,0.60
2023-01-13T08:13:26.501Z,0.50
2023-01-13T08:16:00.170Z,0.80
2023-01-13T08:18:27.066Z,0.57
2023-01-13T08:20:54.217Z,0.50
2023-01-13T08:23:22.466Z,0.63
2023-01-13T08:25:50.711Z,0.43
2023-01-13T08:28:17.966Z,0.40
2023-01-13T08:30:45.054Z,0.40
2023-01-13T08:33:13.156Z,0.40
2023-01-13T08:35:41.259Z,0.60
2023-01-13T08:38:09.275Z,0.50
2023-01-13T08:40:36.770Z,0.30
2023-01-13T08:43:05.050Z,0.40
2023-01-13T08:45:32.373Z,0.37
2023-01-13T08:47:59.234Z,0.30
2023-01-13T08:50:26.121Z,0.50
2023-01-13T08:52:53.183Z,0.40
2023-01-13T08:55:20.186Z,0.50
2023-01-13T08:57:47.118Z,0.43
2023-01-13T09:00:17.184Z,0.37
2023-01-13T09:02:44.443Z,0.60
2023-01-13T09:05:11.316Z,0.77
2023-01-13T09:07:39.237Z,1.00
2023-01-13T09:10:09.641Z,0.53
2023-01-13T09:12:55.615Z,0.60
2023-01-13T09:15:23.913Z,0.30
2023-01-13T09:17:50.820Z,0.30
2023-01-13T09:20:18.169Z,0.33
2023-01-13T09:22:45.053Z,0.30
2023-01-13T09:25:12.788Z,0.20
2023-01-13T09:27:39.981Z,0.60
2023-01-13T09:30:08.359Z,0.30
2023-01-13T09:32:38.276Z,0.20
2023-01-13T09:35:06.586Z,0.10
2023-01-13T09:37:35.213Z,0.40
2023-01-13T09:40:03.003Z,0.43
2023-01-13T09:42:58.498Z,0.10
2023-01-13T09:45:28.545Z,0.20
2023-01-13T09:48:04.476Z,0.10
2023-01-13T09:50:46.359Z,0.10
2023-01-13T09:53:19.389Z,0.10
2023-01-13T09:55:47.194Z,0.37
2023-01-13T09:58:19.257Z,0.10
2023-01-13T10:00:53.491Z,0.17
2023-01-13T10:03:25.877Z,0.30
2023-01-13T10:06:00.912Z,0.20
2023-01-13T10:08:29.756Z,0.10
2023-01-13T10:10:59.046Z,0.10
2023-01-13T10:13:27.972Z,0.20
2023-01-13T10:16:22.324Z,0.10
2023-01-13T10:19:03.609Z,0.30
2023-01-13T10:22:00.846Z,0.90
2023-01-13T10:24:40.290Z,0.40
2023-01-13T10:27:12.553Z,0.30
2023-01-13T10:29:39.412Z,0.30
2023-01-13T10:32:06.245Z,0.20
2023-01-13T10:34:46.174Z,0.30
2023-01-13T10:37:21.371Z,0.20
2023-01-13T10:39:49.367Z,0.20
2023-01-13T10:42:18.205Z,0.20
2023-01-13T10:44:50.403Z,0.50
2023-01-13T10:47:26.268Z,0.30
2023-01-13T10:50:24.208Z,0.40
2023-01-13T10:53:01.059Z,0.20
2023-01-13T10:55:30.608Z,0.33
2023-01-13T10:57:57.670Z,0.27
2023-01-13T11:00:30.822Z,0.20
2023-01-13T11:03:20.621Z,0.20
2023-01-13T11:05:56.401Z,0.20
2023-01-13T11:08:25.447Z,0.50
2023-01-13T11:10:54.394Z,0.27
2023-01-13T11:13:28.258Z,0.20
2023-01-13T11:16:00.765Z,0.20
2023-01-13T11:18:40.361Z,0.20
2023-01-13T11:21:17.357Z,0.10
2023-01-13T11:23:48.898Z,0.30
2023-01-13T11:26:21.843Z,0.30
2023-01-13T11:28:56.921Z,0.20
2023-01-13T11:31:31.614Z,0.37
2023-01-13T11:34:04.413Z,0.17
2023-01-13T11:36:38.698Z,0.30
2023-01-13T11:39:17.475Z,0.30
2023-01-13T11:41:47.390Z,0.20
2023-01-13T11:44:20.233Z,0.30
2023-01-13T11:46:49.539Z,0.40
2023-01-13T11:49:22.866Z,0.30
2023-01-13T11:51:57.812Z,0.57
2023-01-13T11:54:53.360Z,1.23
2023-01-13T11:57:58.528Z,0.43
2023-01-13T12:00:36.440Z,0.80
2023-01-13T12:03:19.527Z,0.50
2023-01-13T12:05:59.699Z,0.63
2023-01-13T12:08:43.825Z,0.73
2023-01-13T12:11:16.632Z,0.37
2023-01-13T12:14:04.664Z,0.50
2023-01-13T12:16:32.469Z,0.67
2023-01-13T12:19:18.533Z,0.60
2023-01-13T12:22:07.820Z,0.50
2023-01-13T12:24:42.922Z,0.80
2023-01-13T12:27:15.872Z,0.70
2023-01-13T12:29:44.430Z,0.40
2023-01-13T12:32:15.144Z,0.50
2023-01-13T12:34:58.108Z,0.53
2023-01-13T12:37:33.471Z,0.60
2023-01-13T12:40:15.422Z,0.90
2023-01-13T12:43:10.475Z,0.77
2023-01-13T12:45:37.486Z,0.93
2023-01-13T12:48:05.908Z,0.70
2023-01-13T12:50:57.981Z,0.60
2023-01-13T12:53:36.285Z,0.67
2023-01-13T12:56:41.288Z,0.90
2023-01-13T12:59:37.177Z,0.70
2023-01-13T13:02:27.214Z,0.90
2023-01-13T13:04:56.851Z,1.00
2023-01-13T13:07:37.093Z,1.03
2023-01-13T13:10:15.683Z,0.63
2023-01-13T13:13:16.714Z,1.00
2023-01-13T13:15:46.404Z,1.10
2023-01-13T13:18:27.499Z,1.40
2023-01-13T13:21:05.095Z,1.57
2023-01-13T13:24:04.728Z,1.33
2023-01-13T13:26:37.369Z,1.00
2023-01-13T13:29:44.215Z,1.13
2023-01-13T13:32:49.893Z,1.10
2023-01-13T13:35:40.811Z,1.10
2023-01-13T13:38:47.612Z,1.20
2023-01-13T13:41:41.471Z,1.20
2023-01-13T13:44:35.329Z,1.20
2023-01-13T13:47:04.325Z,1.30
2023-01-13T13:49:41.454Z,1.40
2023-01-13T13:52:15.353Z,1.50
2023-01-13T13:54:47.959Z,0.90
2023-01-13T13:57:17.389Z,1.17
2023-01-13T13:59:44.265Z,1.30
2023-01-13T14:02:20.510Z,1.33
2023-01-13T14:04:48.836Z,1.20
2023-01-13T14:07:20.908Z,1.27
2023-01-13T14:09:51.127Z,0.67
2023-01-13T14:12:20.271Z,1.00
2023-01-13T14:14:48.276Z,1.13
2023-01-13T14:17:25.681Z,1.93
2023-01-13T14:20:04.908Z,0.83
2023-01-13T14:22:32.427Z,1.10
2023-01-13T14:25:01.662Z,1.03
2023-01-13T14:27:30.408Z,0.87
2023-01-13T14:30:00.087Z,1.20
2023-01-13T14:32:32.465Z,1.10
2023-01-13T14:35:00.689Z,0.77
2023-01-13T14:37:34.919Z,0.93
2023-01-13T14:40:02.017Z,1.20
2023-01-13T14:42:31.363Z,0.90
2023-01-13T14:44:58.692Z,0.90
2023-01-13T14:47:28.089Z,1.33
2023-01-13T14:50:04.416Z,1.27
2023-01-13T14:52:33.497Z,1.10
2023-01-13T14:55:23.150Z,1.37
2023-01-13T14:57:50.311Z,1.60
2023-01-13T15:00:23.516Z,1.70
2023-01-13T15:03:04.460Z,1.03
2023-01-13T15:05:42.742Z,1.13
2023-01-13T15:08:35.947Z,1.17
2023-01-13T15:11:05.210Z,1.13
2023-01-13T15:13:38.851Z,1.10
2023-01-13T15:16:14.085Z,1.03
2023-01-13T15:18:41.277Z,1.00
2023-01-13T15:21:09.903Z,1.17
2023-01-13T15:23:37.078Z,1.00
2023-01-13T15:26:04.305Z,0.90
2023-01-13T15:28:32.110Z,1.20
2023-01-13T15:31:03.814Z,0.83
2023-01-13T15:33:30.801Z,1.10
2023-01-13T15:35:58.390Z,1.30
2023-01-13T15:38:26.602Z,1.00
2023-01-13T15:40:53.574Z,1.50
2023-01-13T15:43:40.617Z,0.80
2023-01-13T15:46:37.900Z,0.80
2023-01-13T15:49:12.685Z,1.00
2023-01-13T15:51:40.178Z,0.70
2023-01-13T15:54:08.781Z,1.00
2023-01-13T15:56:37.158Z,1.03
2023-01-13T15:59:05.078Z,1.10
2023-01-13T16:01:32.018Z,1.00
2023-01-13T16:03:58.964Z,1.10
2023-01-13T16:06:29.319Z,0.90
2023-01-13T16:08:56.206Z,1.30
2023-01-13T16:11:24.403Z,1.60
2023-01-13T16:13:51.357Z,1.57
2023-01-13T16:16:21.904Z,1.00
2023-01-13T16:18:49.374Z,1.70
2023-01-13T16:21:19.102Z,1.20
2023-01-13T16:23:46.670Z,1.50
2023-01-13T16:26:19.141Z,1.57
2023-01-13T16:28:47.709Z,1.50
2023-01-13T16:31:21.747Z,1.20
2023-01-13T16:33:48.850Z,1.40
2023-01-13T16:36:16.717Z,1.30
2023-01-13T16:38:44.087Z,1.30
2023-01-13T16:41:11.022Z,1.33
2023-01-13T16:43:38.466Z,1.10
2023-01-13T16:46:19.973Z,1.20
2023-01-13T16:48:48.451Z,1.00
2023-01-13T16:51:15.788Z,1.43
2023-01-13T16:53:42.730Z,1.40
2023-01-13T16:56:28.261Z,1.20
2023-01-13T16:58:57.865Z,1.50
2023-01-13T17:01:28.207Z,1.33
2023-01-13T17:03:56.031Z,1.57
2023-01-13T17:06:26.549Z,1.57
2023-01-13T17:08:53.676Z,1.40
2023-01-13T17:11:20.942Z,1.53
2023-01-13T17:13:48.014Z,1.50
2023-01-13T17:16:18.322Z,1.17
2023-01-13T17:18:48.103Z,1.37
2023-01-13T17:21:15.787Z,1.30
2023-01-13T17:23:42.937Z,1.00
2023-01-13T17:26:27.994Z,1.00
2023-01-13T17:28:54.923Z,0.93
2023-01-13T17:31:21.791Z,1.30
2023-01-13T17:33:50.100Z,1.40
2023-01-13T17:36:16.970Z,1.63
2023-01-13T17:38:43.932Z,1.10
2023-01-13T17:41:11.014Z,1.20
2023-01-13T17:43:37.852Z,1.13
2023-01-13T17:46:08.100Z,1.40
2023-01-13T17:48:35.094Z,1.10
2023-01-13T17:51:06.766Z,1.60
2023-01-13T17:53:34.028Z,2.00
2023-01-13T17:56:00.921Z,1.27
2023-01-13T17:58:27.881Z,1.30
2023-01-13T18:00:54.907Z,1.27
2023-01-13T18:03:21.901Z,1.50
2023-01-13T18:05:49.322Z,1.30
2023-01-13T18:08:17.581Z,1.20
2023-01-13T18:10:44.406Z,1.00
2023-01-13T18:13:11.296Z,0.97
2023-01-13T18:15:38.160Z,1.00
2023-01-13T18:18:05.136Z,1.63
2023-01-13T18:20:50.869Z,2.07
2023-01-13T18:23:40.202Z,1.43
2023-01-13T18:26:36.237Z,1.50
2023-01-13T18:29:03.228Z,1.63
2023-01-13T18:31:30.108Z,1.57
2023-01-13T18:33:57.092Z,1.77
2023-01-13T18:36:24.071Z,0.97
2023-01-13T18:38:52.491Z,1.60
2023-01-13T18:41:38.496Z,1.57
2023-01-13T18:44:05.601Z,1.17
2023-01-13T18:46:32.911Z,1.10
2023-01-13T18:49:00.035Z,1.10
2023-01-13T18:51:27.341Z,1.20
2023-01-13T18:53:55.563Z,1.00
2023-01-13T18:56:22.443Z,1.20
2023-01-13T18:58:53.144Z,1.20
2023-01-13T19:01:22.585Z,1.67
2023-01-13T19:03:54.511Z,1.10
2023-01-13T19:06:21.940Z,1.00
2023-01-13T19:08:53.224Z,1.00
2023-01-13T19:11:22.969Z,1.30
2023-01-13T19:13:50.927Z,1.07
2023-01-13T19:16:19.713Z,1.50
2023-01-13T19:18:47.460Z,2.63
2023-01-13T19:21:14.470Z,1.90
2023-01-13T19:23:41.492Z,1.30
2023-01-13T19:26:10.613Z,1.07
2023-01-13T19:28:40.129Z,1.17
2023-01-13T19:31:09.845Z,1.10
2023-01-13T19:33:39.610Z,1.10
2023-01-13T19:36:07.805Z,1.10
2023-01-13T19:38:36.198Z,1.10
2023-01-13T19:41:10.792Z,1.00
2023-01-13T19:43:57.603Z,1.07
2023-01-13T19:46:26.304Z,1.20
2023-01-13T19:48:53.187Z,1.23
2023-01-13T19:51:20.070Z,1.40
2023-01-13T19:53:46.974Z,1.20
2023-01-13T19:56:15.230Z,1.00
2023-01-13T19:58:50.361Z,0.90
2023-01-13T20:01:17.623Z,1.20
2023-01-13T20:03:46.160Z,1.20
2023-01-13T20:06:13.974Z,1.40
2023-01-13T20:08:41.952Z,1.10
2023-01-13T20:11:23.258Z,1.10
2023-01-13T20:13:54.421Z,1.30
2023-01-13T20:16:21.376Z,0.97
2023-01-13T20:18:50.073Z,1.37
2023-01-13T20:21:17.472Z,1.40
2023-01-13T20:23:44.627Z,1.10
2023-01-13T20:26:11.590Z,1.10
2023-01-13T20:28:39.487Z,0.80
2023-01-13T20:31:09.742Z,0.70
2023-01-13T20:33:38.457Z,1.00
2023-01-13T20:36:06.456Z,1.07
2023-01-13T20:38:39.428Z,1.03
2023-01-13T20:41:25.698Z,1.30
2023-01-13T20:43:53.576Z,1.80
2023-01-13T20:46:22.850Z,1.50
2023-01-13T20:48:50.336Z,2.20
2023-01-13T20:51:17.323Z,2.53
2023-01-13T20:53:44.194Z,1.50
2023-01-13T20:56:11.082Z,3.20
2023-01-13T20:58:38.488Z,1.30
2023-01-13T21:01:05.684Z,1.30
2023-01-13T21:03:33.976Z,1.50
2023-01-13T21:06:00.856Z,1.33
2023-01-13T21:08:27.732Z,1.37
2023-01-13T21:10:59.772Z,1.27
2023-01-13T21:13:45.429Z,1.10
2023-01-13T21:16:12.822Z,1.30
2023-01-13T21:19:00.276Z,1.10
2023-01-13T21:21:27.338Z,1.30
2023-01-13T21:23:54.269Z,1.30
2023-01-13T21:26:22.071Z,1.33
2023-01-13T21:28:49.394Z,1.63
2023-01-13T21:31:17.171Z,1.67
2023-01-13T21:33:47.573Z,1.43
2023-01-13T21:36:15.073Z,1.60
2023-01-13T21:38:42.240Z,1.50
2023-01-13T21:41:09.652Z,1.40
2023-01-13T21:43:56.356Z,1.30
2023-01-13T21:46:42.778Z,1.40
2023-01-13T21:49:10.997Z,1.67
2023-01-13T21:51:37.887Z,2.10
2023-01-13T21:54:04.765Z,2.00
2023-01-13T21:56:31.666Z,1.60
2023-01-13T21:58:58.588Z,1.50
2023-01-13T22:01:25.560Z,1.90
2023-01-13T22:04:11.056Z,1.53
2023-01-13T22:06:39.378Z,1.30
2023-01-13T22:09:06.572Z,1.40
2023-01-13T22:11:33.838Z,1.57
2023-01-13T22:14:07.249Z,2.00
2023-01-13T22:16:37.531Z,2.37
2023-01-13T22:19:04.575Z,2.00
2023-01-13T22:21:31.675Z,1.70
2023-01-13T22:24:00.319Z,1.67
2023-01-13T22:26:27.836Z,2.53
2023-01-13T22:28:54.899Z,3.20
2023-01-13T22:31:23.794Z,1.97
2023-01-13T22:33:54.995Z,1.80
2023-01-13T22:36:24.031Z,1.87
2023-01-13T22:38:54.718Z,1.93
2023-01-13T22:41:23.285Z,2.23
2023-01-13T22:43:50.201Z,1.80
2023-01-13T22:46:17.386Z,1.70
2023-01-13T22:48:45.847Z,1.80
2023-01-13T22:51:14.226Z,1.50
2023-01-13T22:53:42.090Z,1.60
2023-01-13T22:56:15.176Z,1.97
2023-01-13T22:58:43.816Z,1.80
2023-01-13T23:01:12.160Z,2.00
2023-01-13T23:03:39.680Z,1.70
2023-01-13T23:06:06.946Z,1.50
2023-01-13T23:08:34.570Z,1.50
2023-01-13T23:11:02.126Z,1.80
2023-01-13T23:13:29.357Z,1.83
2023-01-13T23:16:01.614Z,1.57
2023-01-13T23:18:28.549Z,1.30
2023-01-13T23:20:55.437Z,1.87
2023-01-13T23:23:24.443Z,1.30
2023-01-13T23:25:53.647Z,1.50
2023-01-13T23:28:22.050Z,1.33
2023-01-13T23:30:49.373Z,1.60
2023-01-13T23:33:17.964Z,1.20
2023-01-13T23:35:54.653Z,1.30
2023-01-13T23:38:21.531Z,1.30
2023-01-13T23:40:48.456Z,1.53
2023-01-13T23:43:15.505Z,1.83
2023-01-13T23:45:42.348Z,1.30
2023-01-13T23:48:09.507Z,1.20
2023-01-13T23:50:37.694Z,1.30
2023-01-13T23:53:04.479Z,1.50
2023-01-13T23:55:31.251Z,1.40
2023-01-13T23:57:58.131Z,1.57
